Time;durP1;ratioP1;P1;durP2;ratioP2;P2;SDS_P1;SDS_P2;PMS_P1;PMS_P2;Temp;Humidity;BMP_temperature;BMP_pressure;BME280_temperature;BME280_humidity;BME280_pressure;Samples;Min_cycle;Max_cycle;Signal;HPM_P1;HPM_P2
2022/09/20 00:00:29;;;;;;;2.33;1.20;;;307.80;2304.00;;;;;;5146093;27;20065;-82
2022/09/20 00:02:55;;;;;;;2.47;1.60;;;307.80;2304.00;;;;;;5125262;27;20023;-79
2022/09/20 00:05:21;;;;;;;2.47;1.50;;;307.80;2304.00;;;;;;5127295;27;20034;-82
2022/09/20 00:07:49;;;;;;;2.20;1.20;;;307.90;2304.00;;;;;;5128277;27;20463;-82
2022/09/20 00:10:18;;;;;;;2.45;1.30;;;308.00;2304.00;;;;;;5126909;27;20058;-82
2022/09/20 00:12:43;;;;;;;1.63;1.20;;;308.00;2304.00;;;;;;5144484;27;20019;-82
2022/09/20 00:15:09;;;;;;;2.30;1.48;;;308.00;2304.00;;;;;;5140764;27;20512;-82
2022/09/20 00:17:35;;;;;;;2.03;1.20;;;308.00;2304.00;;;;;;5125384;27;20034;-81
2022/09/20 00:20:01;;;;;;;2.10;1.35;;;308.10;2304.00;;;;;;5146209;27;20034;-83
2022/09/20 00:22:27;;;;;;;2.58;1.42;;;308.10;2304.00;;;;;;5142296;27;20168;-82
2022/09/20 00:24:53;;;;;;;1.45;1.05;;;332.80;2329.60;;;;;;5142595;27;20479;-80
2022/09/20 00:27:18;;;;;;;1.98;1.40;;;332.80;2329.60;;;;;;5127153;27;20035;-80
2022/09/20 00:29:44;;;;;;;1.70;1.40;;;308.10;2304.00;;;;;;5141290;27;20391;-82
2022/09/20 00:32:10;;;;;;;3.47;1.88;;;308.10;2304.00;;;;;;5116154;27;20033;-83
2022/09/20 00:37:20;;;;;;;1.95;1.23;;;332.80;2329.60;;;;;;5134840;27;20030;-81
2022/09/20 00:39:45;;;;;;;2.22;1.08;;;332.90;2329.60;;;;;;5115587;27;20027;-80
2022/09/20 00:42:13;;;;;;;1.50;0.88;;;332.90;2329.60;;;;;;5117178;27;20039;-78
2022/09/20 00:44:48;;;;;;;2.80;1.42;;;332.90;2329.60;;;;;;5117022;27;20034;-81
2022/09/20 00:47:44;;;;;;;2.22;1.10;;;332.90;2329.60;;;;;;5116827;27;20023;-82
2022/09/20 00:50:28;;;;;;;3.58;1.00;;;333.00;2329.60;;;;;;5126149;27;20058;-82
2022/09/20 00:53:01;;;;;;;1.30;0.90;;;332.90;2329.60;;;;;;5135099;27;20027;-82
2022/09/20 00:55:27;;;;;;;3.90;1.25;;;333.00;2329.60;;;;;;5116668;27;20019;-83
2022/09/20 00:57:54;;;;;;;1.83;1.05;;;308.10;2304.00;;;;;;5134988;27;20068;-82
2022/09/20 01:00:20;;;;;;;1.70;1.10;;;333.00;2329.60;;;;;;5134511;27;20029;-83
2022/09/20 01:03:05;;;;;;;1.63;1.00;;;333.00;2329.60;;;;;;5116577;27;20031;-83
2022/09/20 01:05:32;;;;;;;1.40;0.98;;;333.00;2329.60;;;;;;5116865;27;20083;-83
2022/09/20 01:07:58;;;;;;;2.90;1.10;;;333.00;2329.60;;;;;;5116599;27;20023;-83
2022/09/20 01:10:24;;;;;;;3.20;1.10;;;333.00;2329.60;;;;;;5134999;27;20062;-84
2022/09/20 01:12:51;;;;;;;2.55;1.35;;;333.00;2329.60;;;;;;5116772;27;20465;-84
2022/09/20 01:15:18;;;;;;;2.80;1.20;;;333.00;2329.60;;;;;;5116332;27;20031;-83
2022/09/20 01:17:49;;;;;;;1.50;0.93;;;333.10;2329.60;;;;;;5116209;27;20023;-83
2022/09/20 01:20:47;;;;;;;1.90;1.05;;;333.10;2329.60;;;;;;5116299;27;20494;-83
2022/09/20 01:23:28;;;;;;;1.90;1.05;;;333.20;2329.60;;;;;;5034691;28;20043;-82
2022/09/20 01:26:08;;;;;;;1.83;1.25;;;333.10;2329.60;;;;;;5051561;28;20041;-83
2022/09/20 01:28:35;;;;;;;2.63;1.20;;;333.10;2329.60;;;;;;5051713;28;20155;-82
2022/09/20 01:31:19;;;;;;;4.05;1.10;;;333.10;2329.60;;;;;;5051313;28;20263;-78
2022/09/20 01:34:26;;;;;;;2.25;1.23;;;333.10;2329.60;;;;;;5051527;28;20091;-82
2022/09/20 01:37:15;;;;;;;3.60;1.48;;;333.10;2329.60;;;;;;5052027;28;20025;-83
2022/09/20 01:40:15;;;;;;;3.15;1.30;;;333.10;2329.60;;;;;;5034760;28;20607;-81
2022/09/20 01:43:01;;;;;;;1.70;1.20;;;333.10;2329.60;;;;;;5051020;28;20025;-82
2022/09/20 01:45:30;;;;;;;2.67;1.33;;;333.20;2329.60;;;;;;5051041;28;20041;-81
2022/09/20 01:48:12;;;;;;;4.07;1.40;;;333.20;2329.60;;;;;;5051384;28;20040;-81
2022/09/20 01:51:19;;;;;;;1.92;1.13;;;333.20;2329.60;;;;;;5034408;28;20049;-82
2022/09/20 01:53:45;;;;;;;3.60;1.30;;;333.30;2329.60;;;;;;5030992;28;20038;-82
2022/09/20 01:56:29;;;;;;;3.55;1.33;;;333.30;2329.60;;;;;;5031143;28;20044;-82
2022/09/20 01:59:26;;;;;;;3.05;1.20;;;333.30;2329.60;;;;;;5045233;28;20043;-82
2022/09/20 02:02:00;;;;;;;5.57;1.27;;;333.30;2329.60;;;;;;5071426;28;20036;-82
2022/09/20 02:04:51;;;;;;;2.58;1.38;;;333.40;2329.60;;;;;;5070783;28;20044;-82
2022/09/20 02:07:31;;;;;;;2.15;1.35;;;333.40;2329.60;;;;;;5054056;28;20143;-82
2022/09/20 02:10:20;;;;;;;2.10;1.50;;;333.40;2329.60;;;;;;5054107;28;20044;-83
2022/09/20 02:12:54;;;;;;;1.95;1.27;;;333.40;2329.60;;;;;;5014181;28;20038;-82
2022/09/20 02:15:45;;;;;;;5.25;1.95;;;333.30;2329.60;;;;;;4998823;28;20060;-82
2022/09/20 02:18:44;;;;;;;2.58;1.58;;;333.30;2329.60;;;;;;5015311;28;20037;-83
2022/09/20 02:21:36;;;;;;;3.42;1.98;;;333.40;2329.60;;;;;;5015319;28;20163;-82
2022/09/20 02:24:42;;;;;;;2.85;1.85;;;333.30;2329.60;;;;;;5015501;28;20109;-81
2022/09/20 02:27:37;;;;;;;2.58;1.30;;;333.40;2329.60;;;;;;5015110;28;20022;-82
2022/09/20 02:30:38;;;;;;;3.58;2.08;;;333.30;2329.60;;;;;;4975057;28;20547;-81
2022/09/20 02:33:40;;;;;;;3.25;1.60;;;333.30;2329.60;;;;;;4975804;28;20090;-82
2022/09/20 02:36:39;;;;;;;3.35;1.92;;;333.20;2329.60;;;;;;4975652;28;20118;-81
2022/09/20 02:39:20;;;;;;;3.03;1.90;;;333.30;2329.60;;;;;;4975655;28;20068;-81
2022/09/20 02:41:46;;;;;;;3.80;1.90;;;333.20;2329.60;;;;;;4959517;28;20039;-82
2022/09/20 02:44:30;;;;;;;3.22;1.92;;;333.20;2329.60;;;;;;4975703;28;20069;-83
2022/09/20 02:47:19;;;;;;;2.80;1.80;;;333.30;2329.60;;;;;;4975706;28;20396;-83
2022/09/20 02:50:04;;;;;;;3.45;2.25;;;333.30;2329.60;;;;;;4920368;29;20031;-77
2022/09/20 02:52:57;;;;;;;3.72;2.40;;;333.30;2329.60;;;;;;4956373;29;20058;-89
2022/09/20 02:56:16;;;;;;;3.38;1.88;;;333.30;2329.60;;;;;;4956594;29;20045;-78
2022/09/20 02:58:59;;;;;;;4.07;2.00;;;333.40;2329.60;;;;;;4937448;29;20104;-87
2022/09/20 03:01:30;;;;;;;4.15;1.85;;;333.30;2329.60;;;;;;4936699;29;20122;-86
2022/09/20 03:04:29;;;;;;;4.97;2.22;;;333.20;2329.60;;;;;;4936329;29;20047;-80
2022/09/20 03:07:22;;;;;;;3.17;2.15;;;333.20;2329.60;;;;;;4945439;29;20118;-81
2022/09/20 03:10:06;;;;;;;4.38;2.47;;;333.30;2329.60;;;;;;4955115;29;20094;-82
2022/09/20 03:12:35;;;;;;;4.60;2.10;;;333.30;2329.60;;;;;;4956019;29;20043;-82
2022/09/20 03:15:10;;;;;;;6.30;2.10;;;333.20;2329.60;;;;;;4955917;29;20425;-82
2022/09/20 03:17:56;;;;;;;4.53;2.22;;;333.30;2329.60;;;;;;4956029;29;20038;-82
2022/09/20 03:20:51;;;;;;;3.70;2.10;;;333.40;2329.60;;;;;;4955696;29;20107;-82
2022/09/20 03:23:48;;;;;;;5.10;2.88;;;333.30;2329.60;;;;;;4935810;29;20032;-82
2022/09/20 03:26:25;;;;;;;5.68;1.73;;;333.30;2329.60;;;;;;4942118;29;20049;-82
2022/09/20 03:29:21;;;;;;;6.47;3.00;;;333.30;2329.60;;;;;;4995904;28;20099;-82
2022/09/20 03:32:04;;;;;;;4.63;2.50;;;333.20;2329.60;;;;;;5034098;28;20025;-82
2022/09/20 03:34:50;;;;;;;4.40;2.55;;;333.20;2329.60;;;;;;5028300;28;20136;-82
2022/09/20 03:37:39;;;;;;;4.65;2.22;;;333.30;2329.60;;;;;;5022921;28;20075;-80
2022/09/20 03:40:48;;;;;;;5.25;2.63;;;333.20;2329.60;;;;;;5032801;28;20038;-78
2022/09/20 03:43:55;;;;;;;6.90;2.75;;;333.20;2329.60;;;;;;5016371;28;20030;-79
2022/09/20 03:46:29;;;;;;;5.10;2.22;;;333.20;2329.60;;;;;;5022143;28;20056;-79
2022/09/20 03:49:15;;;;;;;4.78;2.22;;;333.10;2329.60;;;;;;5015952;28;20021;-80
2022/09/20 03:51:59;;;;;;;6.38;2.92;;;333.00;2329.60;;;;;;5016180;28;20039;-79
2022/09/20 03:55:03;;;;;;;5.10;2.55;;;333.00;2329.60;;;;;;5015612;28;20079;-78
2022/09/20 03:57:54;;;;;;;6.63;2.80;;;333.00;2329.60;;;;;;5032043;28;20106;-78
2022/09/20 04:00:45;;;;;;;7.65;3.53;;;333.00;2329.60;;;;;;5090262;27;20099;-79
2022/09/20 04:03:17;;;;;;;8.98;3.33;;;333.00;2329.60;;;;;;5135216;27;20209;-79
2022/09/20 04:06:01;;;;;;;6.13;3.00;;;333.00;2329.60;;;;;;5135055;27;20054;-78
2022/09/20 04:08:44;;;;;;;6.00;3.10;;;332.90;2329.60;;;;;;5135372;27;20058;-81
2022/09/20 04:11:49;;;;;;;7.65;3.47;;;333.00;2329.60;;;;;;5113747;28;20052;-81
2022/09/20 04:14:33;;;;;;;7.10;2.88;;;333.00;2329.60;;;;;;5115630;28;20019;-86
2022/09/20 04:17:19;;;;;;;5.75;2.72;;;333.10;2329.60;;;;;;5115090;28;20028;-81
2022/09/20 04:20:01;;;;;;;6.03;2.78;;;333.00;2329.60;;;;;;5114044;28;20030;-84
2022/09/20 04:22:28;;;;;;;5.68;2.55;;;333.00;2329.60;;;;;;5115295;28;20024;-78
2022/09/20 04:25:06;;;;;;;6.15;2.55;;;333.00;2329.60;;;;;;5114235;28;20396;-77
2022/09/20 04:27:44;;;;;;;8.35;2.70;;;332.90;2329.60;;;;;;5113256;28;20019;-77
2022/09/20 04:30:19;;;;;;;5.45;2.80;;;332.90;2329.60;;;;;;5112992;28;20039;-78
2022/09/20 04:33:23;;;;;;;6.90;2.45;;;332.90;2329.60;;;;;;5113260;28;20123;-78
2022/09/20 04:36:28;;;;;;;5.93;3.03;;;332.90;2329.60;;;;;;5014844;28;20040;-84
2022/09/20 04:39:19;;;;;;;6.38;2.70;;;332.90;2329.60;;;;;;5032160;28;20060;-82
2022/09/20 04:42:15;;;;;;;4.95;2.60;;;332.80;2329.60;;;;;;5015108;28;20034;-79
2022/09/20 04:45:01;;;;;;;5.38;3.08;;;332.80;2329.60;;;;;;5016107;28;20064;-90
2022/09/20 04:47:44;;;;;;;5.70;2.90;;;332.80;2329.60;;;;;;5016067;28;20029;-82
2022/09/20 04:50:16;;;;;;;6.05;2.67;;;332.80;2329.60;;;;;;5029116;28;20037;-85
2022/09/20 04:53:18;;;;;;;5.53;2.75;;;308.10;2304.00;;;;;;5041791;28;20111;-83
2022/09/20 04:55:54;;;;;;;5.88;2.50;;;332.80;2329.60;;;;;;5039893;28;20170;-79
2022/09/20 04:58:47;;;;;;;6.50;2.85;;;332.80;2329.60;;;;;;5025499;28;20471;-80
2022/09/20 05:01:16;;;;;;;8.27;3.85;;;308.10;2304.00;;;;;;5031940;28;20481;-83
2022/09/20 05:03:56;;;;;;;5.43;3.17;;;308.10;2304.00;;;;;;5028265;28;20045;-80
2022/09/20 05:06:39;;;;;;;9.35;4.80;;;308.10;2304.00;;;;;;5031577;28;20160;-81
2022/09/20 05:09:43;;;;;;;5.50;2.65;;;308.10;2304.00;;;;;;5012186;28;20054;-79
2022/09/20 05:12:45;;;;;;;5.63;3.05;;;332.80;2329.60;;;;;;4992919;28;20549;-80
2022/09/20 05:15:30;;;;;;;5.53;3.10;;;308.10;2304.00;;;;;;5057653;28;20024;-87
2022/09/20 05:18:16;;;;;;;7.22;3.38;;;308.10;2304.00;;;;;;5054101;28;20489;-79
2022/09/20 05:20:48;;;;;;;6.38;3.35;;;308.00;2304.00;;;;;;5054210;28;20021;-79
2022/09/20 05:23:16;;;;;;;6.13;2.75;;;308.00;2304.00;;;;;;5053946;28;20509;-82
2022/09/20 05:26:07;;;;;;;6.55;3.47;;;308.00;2304.00;;;;;;5054460;28;20564;-81
2022/09/20 05:28:57;;;;;;;7.97;4.10;;;308.00;2304.00;;;;;;5071339;28;20108;-80
2022/09/20 05:31:39;;;;;;;7.07;4.45;;;308.10;2304.00;;;;;;5071638;28;20050;-83
2022/09/20 05:34:30;;;;;;;6.05;3.55;;;308.10;2304.00;;;;;;5070877;28;20028;-82
2022/09/20 05:37:32;;;;;;;5.40;3.17;;;308.10;2304.00;;;;;;5040464;28;20059;-83
2022/09/20 05:40:27;;;;;;;8.50;3.88;;;308.10;2304.00;;;;;;5040139;28;20029;-78
2022/09/20 05:43:10;;;;;;;6.38;3.80;;;308.10;2304.00;;;;;;5054314;28;20051;-77
2022/09/20 05:45:47;;;;;;;7.30;3.33;;;308.10;2304.00;;;;;;5054028;28;20554;-83
2022/09/20 05:48:38;;;;;;;5.80;3.58;;;308.10;2304.00;;;;;;5079908;28;20032;-78
2022/09/20 05:51:30;;;;;;;6.78;3.50;;;308.10;2304.00;;;;;;5111702;28;20051;-77
2022/09/20 05:54:40;;;;;;;5.55;3.42;;;332.80;2329.60;;;;;;5113443;28;20022;-80
2022/09/20 05:57:43;;;;;;;6.32;3.70;;;332.80;2329.60;;;;;;5115817;27;20027;-80
2022/09/20 06:00:17;;;;;;;7.43;3.97;;;332.90;2329.60;;;;;;5112248;28;20024;-78
2022/09/20 06:02:58;;;;;;;6.70;3.83;;;332.90;2329.60;;;;;;5111644;28;20027;-79
2022/09/20 06:05:46;;;;;;;5.93;3.30;;;332.90;2329.60;;;;;;5111716;28;20035;-80
2022/09/20 06:08:38;;;;;;;7.03;3.45;;;333.00;2329.60;;;;;;5112670;28;20072;-79
2022/09/20 06:11:31;;;;;;;5.75;3.28;;;333.00;2329.60;;;;;;5111760;28;20109;-79
2022/09/20 06:14:20;;;;;;;5.88;4.03;;;333.10;2329.60;;;;;;5123231;28;20020;-80
2022/09/20 06:17:15;;;;;;;8.38;3.90;;;333.10;2329.60;;;;;;5111590;28;20114;-78
2022/09/20 06:20:03;;;;;;;8.18;3.55;;;333.20;2329.60;;;;;;5111318;28;20053;-79
2022/09/20 06:22:41;;;;;;;5.50;3.42;;;333.30;2329.60;;;;;;5112773;28;20868;-82
2022/09/20 06:25:07;;;;;;;5.63;3.17;;;333.40;2329.60;;;;;;5111711;28;20062;-82
2022/09/20 06:27:48;;;;;;;4.50;3.17;;;333.40;2329.60;;;;;;5122199;28;20061;-86
2022/09/20 06:30:24;;;;;;;7.22;2.83;;;333.60;2329.60;;;;;;5113668;28;20110;-77
2022/09/20 06:33:13;;;;;;;7.97;3.92;;;333.70;2329.60;;;;;;5112079;28;20552;-86
2022/09/20 06:35:57;;;;;;;7.05;3.60;;;358.40;2329.60;;;;;;5112579;28;20053;-79
2022/09/20 06:41:27;;;;;;;17.08;11.00;;;358.70;2329.60;;;;;;5124919;28;20060;-78
2022/09/20 06:43:57;;;;;;;7.13;4.47;;;358.80;2329.60;;;;;;5112967;28;20065;-81
2022/09/20 06:46:28;;;;;;;4.43;3.08;;;359.00;2329.60;;;;;;5112551;28;20051;-81
2022/09/20 06:48:55;;;;;;;11.63;5.30;;;359.10;2329.60;;;;;;5115470;28;20019;-77
2022/09/20 06:51:22;;;;;;;5.15;3.00;;;359.30;2329.60;;;;;;5122725;27;20559;-81
2022/09/20 06:53:48;;;;;;;9.38;2.92;;;384.00;2329.60;;;;;;5111769;28;20031;-81
2022/09/20 06:56:26;;;;;;;3.85;2.47;;;384.10;2329.60;;;;;;5121092;28;20016;-77
2022/09/20 06:58:52;;;;;;;4.78;2.55;;;384.20;2329.60;;;;;;5121855;27;20016;-84
2022/09/20 07:01:19;;;;;;;3.85;2.20;;;384.20;2329.60;;;;;;5127312;27;20081;-80
2022/09/20 07:03:44;;;;;;;7.13;3.40;;;359.30;2329.60;;;;;;5129555;27;20027;-85
2022/09/20 07:06:11;;;;;;;5.07;2.53;;;384.60;2329.60;;;;;;5117322;28;20027;-80
2022/09/20 07:08:37;;;;;;;10.60;4.88;;;384.70;2329.60;;;;;;5120031;28;20057;-79
2022/09/20 07:11:05;;;;;;;3.75;1.67;;;384.90;2329.60;;;;;;5133383;27;20125;-76
2022/09/20 07:13:31;;;;;;;2.78;1.73;;;384.90;2329.60;;;;;;5157137;27;20025;-77
2022/09/20 07:16:08;;;;;;;4.05;2.00;;;384.90;2329.60;;;;;;5136711;27;20016;-80
2022/09/20 07:18:34;;;;;;;3.70;1.88;;;384.80;2329.60;;;;;;5143362;27;20021;-80
2022/09/20 07:21:00;;;;;;;6.15;2.55;;;384.90;2329.60;;;;;;5148001;27;20357;-79
2022/09/20 07:23:28;;;;;;;7.78;5.30;;;384.90;2329.60;;;;;;5120187;27;20475;-79
2022/09/20 07:25:59;;;;;;;5.95;2.80;;;409.60;2355.20;;;;;;5127742;27;20035;-80
2022/09/20 07:28:27;;;;;;;8.32;4.38;;;409.60;2355.20;;;;;;5121613;27;20027;-80
2022/09/20 07:30:53;;;;;;;4.15;2.47;;;409.60;2355.20;;;;;;5128367;27;20023;-80
2022/09/20 07:33:20;;;;;;;5.18;2.17;;;384.90;2329.60;;;;;;5131717;27;20019;-77
2022/09/20 07:35:49;;;;;;;3.83;2.13;;;409.60;2355.20;;;;;;5135738;27;20024;-77
2022/09/20 07:38:15;;;;;;;3.55;1.80;;;409.60;2355.20;;;;;;5150033;27;20015;-76
2022/09/20 07:40:42;;;;;;;4.75;2.05;;;409.70;2355.20;;;;;;5117413;27;20054;-78
2022/09/20 07:43:08;;;;;;;3.45;1.60;;;409.70;2355.20;;;;;;5117232;27;20469;-78
2022/09/20 07:45:38;;;;;;;4.28;1.90;;;409.80;2355.20;;;;;;5131360;27;20412;-78
2022/09/20 07:48:07;;;;;;;3.75;2.03;;;409.90;2355.20;;;;;;5135435;27;20023;-77
2022/09/20 07:50:33;;;;;;;8.75;2.00;;;410.00;2355.20;;;;;;5117025;27;20141;-78
2022/09/20 07:52:58;;;;;;;6.15;1.88;;;410.00;2355.20;;;;;;5117558;27;20165;-78
2022/09/20 07:55:24;;;;;;;5.22;2.00;;;410.00;2355.20;;;;;;5131624;27;20046;-81
2022/09/20 07:57:50;;;;;;;3.58;2.00;;;410.00;2355.20;;;;;;5135627;27;20022;-77
2022/09/20 08:00:16;;;;;;;2.97;1.48;;;410.00;2355.20;;;;;;5135399;27;20027;-79
2022/09/20 08:02:44;;;;;;;8.80;1.75;;;410.00;2355.20;;;;;;5135497;27;20023;-78
2022/09/20 08:05:10;;;;;;;4.22;2.20;;;410.00;2355.20;;;;;;5116569;27;20108;-78
2022/09/20 08:07:38;;;;;;;4.32;1.75;;;410.00;2355.20;;;;;;5120774;27;20464;-78
2022/09/20 08:10:04;;;;;;;4.03;1.70;;;410.20;2355.20;;;;;;5126616;27;20400;-78
2022/09/20 08:12:31;;;;;;;6.18;1.85;;;410.40;2355.20;;;;;;5147926;27;20103;-79
2022/09/20 08:14:57;;;;;;;4.93;1.95;;;410.20;2355.20;;;;;;5135573;27;20027;-79
2022/09/20 08:17:23;;;;;;;4.28;2.10;;;410.30;2355.20;;;;;;5121002;27;20059;-78
2022/09/20 08:19:52;;;;;;;5.88;2.22;;;410.20;2355.20;;;;;;5145095;27;20022;-77
2022/09/20 08:22:18;;;;;;;4.72;1.83;;;410.20;2355.20;;;;;;5128167;27;20404;-77
2022/09/20 08:24:44;;;;;;;8.52;2.20;;;410.20;2355.20;;;;;;5139286;27;20042;-77
2022/09/20 08:27:09;;;;;;;5.38;2.90;;;410.30;2355.20;;;;;;5116258;27;20019;-79
2022/09/20 08:29:35;;;;;;;3.80;1.40;;;410.30;2355.20;;;;;;5116704;27;20037;-79
2022/09/20 08:32:02;;;;;;;4.88;1.88;;;410.40;2355.20;;;;;;5134772;27;20089;-75
2022/09/20 08:34:28;;;;;;;7.40;3.53;;;410.50;2355.20;;;;;;5134725;27;20023;-77
2022/09/20 08:36:55;;;;;;;5.75;1.77;;;410.50;2355.20;;;;;;5134172;27;20515;-76
2022/09/20 08:39:22;;;;;;;2.60;1.30;;;435.20;2355.20;;;;;;5150287;27;20476;-79
2022/09/20 08:42:11;;;;;;;3.20;2.08;;;435.30;2355.20;;;;;;5116105;27;20026;-75
2022/09/20 08:45:21;;;;;;;4.88;3.20;;;435.30;2355.20;;;;;;5091151;28;20548;-78
2022/09/20 08:47:57;;;;;;;2.13;1.40;;;435.30;2355.20;;;;;;5074365;28;20036;-78
2022/09/20 08:50:23;;;;;;;;;;;435.40;2355.20;;;;;;5072822;28;20036;-76
2022/09/20 08:52:54;;;;;;;1.63;1.00;;;435.40;2355.20;;;;;;5081807;28;20324;-77
2022/09/20 08:55:33;;;;;;;3.85;1.20;;;435.50;2355.20;;;;;;5072318;28;20028;-76
2022/09/20 08:58:01;;;;;;;2.97;1.40;;;435.50;2355.20;;;;;;5081568;28;20024;-75
2022/09/20 09:00:32;;;;;;;3.30;1.45;;;435.50;2355.20;;;;;;5079565;28;20027;-75
2022/09/20 09:03:04;;;;;;;1.90;1.00;;;435.50;2355.20;;;;;;5082142;28;20513;-75
2022/09/20 09:05:39;;;;;;;3.00;1.38;;;435.70;2355.20;;;;;;5079087;28;20094;-76
2022/09/20 09:08:29;;;;;;;2.58;1.20;;;435.80;2355.20;;;;;;5078147;28;20036;-75
2022/09/20 09:11:07;;;;;;;4.47;1.45;;;435.90;2355.20;;;;;;5063383;28;20094;-77
2022/09/20 09:14:03;;;;;;;3.00;1.33;;;436.00;2355.20;;;;;;5079067;28;20032;-77
2022/09/20 09:16:31;;;;;;;2.17;1.13;;;460.80;2380.80;;;;;;5065128;28;20044;-79
2022/09/20 09:19:29;;;;;;;2.60;1.23;;;461.00;2380.80;;;;;;5079275;28;20044;-76
2022/09/20 09:22:02;;;;;;;1.88;1.02;;;461.10;2304.00;;;;;;5111680;27;20034;-76
2022/09/20 09:24:30;;;;;;;3.35;1.00;;;461.40;2278.40;;;;;;5130549;27;20484;-75
2022/09/20 09:27:15;;;;;;;1.48;1.05;;;461.40;2329.60;;;;;;5113899;27;20080;-76
2022/09/20 09:29:53;;;;;;;2.83;1.30;;;461.20;2329.60;;;;;;5138232;27;20035;-76
2022/09/20 09:32:29;;;;;;;6.72;1.35;;;461.00;2380.80;;;;;;5130588;27;20075;-76
2022/09/20 09:35:17;;;;;;;1.75;1.00;;;461.20;2380.80;;;;;;5132938;27;20011;-76
2022/09/20 09:37:56;;;;;;;5.88;4.18;;;461.50;2380.80;;;;;;5112503;27;20468;-75
2022/09/20 09:40:22;;;;;;;4.78;2.33;;;461.70;2227.20;;;;;;5130912;27;20083;-77
2022/09/20 09:43:18;;;;;;;2.92;0.98;;;486.50;2201.60;;;;;;5132877;27;20020;-76
2022/09/20 09:45:43;;;;;;;7.50;2.53;;;486.70;2227.20;;;;;;5112593;28;20429;-77
2022/09/20 09:48:23;;;;;;;3.35;1.40;;;486.80;2099.20;;;;;;5132883;27;20023;-76
2022/09/20 09:50:49;;;;;;;1.75;0.90;;;486.90;2022.40;;;;;;5113239;27;20019;-78
2022/09/20 09:53:21;;;;;;;4.70;2.17;;;486.60;2073.60;;;;;;5133180;27;20068;-75
2022/09/20 09:56:16;;;;;;;4.15;1.08;;;486.40;2048.00;;;;;;5115078;27;20031;-79
2022/09/20 09:59:39;;;;;;;3.40;1.00;;;486.60;2022.40;;;;;;5128546;27;20365;-79
2022/09/20 10:02:35;;;;;;;2.58;0.88;;;486.40;2099.20;;;;;;5079737;28;20466;-77
2022/09/20 10:05:15;;;;;;;2.58;1.23;;;461.70;2022.40;;;;;;5072797;28;20056;-75
2022/09/20 10:07:48;;;;;;;5.38;2.00;;;486.60;1996.80;;;;;;5081008;28;20024;-74
2022/09/20 10:10:26;;;;;;;11.38;4.70;;;487.10;1920.00;;;;;;5078178;28;20581;-76
2022/09/20 10:12:52;;;;;;;2.08;1.10;;;487.10;1920.00;;;;;;5078361;28;20032;-78
2022/09/20 10:15:48;;;;;;;3.95;1.40;;;487.30;1843.20;;;;;;5078725;28;20445;-78
2022/09/20 10:18:19;;;;;;;1.95;0.93;;;486.70;1894.40;;;;;;5064688;28;20028;-79
2022/09/20 10:21:22;;;;;;;1.02;0.80;;;486.50;1920.00;;;;;;5062242;28;20474;-77
2022/09/20 10:24:12;;;;;;;2.67;1.40;;;461.70;1971.20;;;;;;5079293;28;20068;-77
2022/09/20 10:27:04;;;;;;;1.38;1.00;;;461.50;2124.80;;;;;;5063480;28;20028;-78
2022/09/20 10:29:49;;;;;;;1.67;1.00;;;461.70;2048.00;;;;;;5081458;28;20055;-78
2022/09/20 10:32:39;;;;;;;1.08;0.80;;;486.80;1971.20;;;;;;5064827;28;20082;-80
2022/09/20 10:35:26;;;;;;;2.97;1.20;;;486.70;2022.40;;;;;;5089789;27;20459;-77
2022/09/20 10:38:07;;;;;;;7.10;1.20;;;486.60;2048.00;;;;;;5135147;27;20050;-77
2022/09/20 10:44:08;;;;;;;4.72;1.20;;;486.40;2022.40;;;;;;5136906;27;20066;-77
2022/09/20 10:46:50;;;;;;;6.20;1.23;;;461.70;2099.20;;;;;;5128273;27;20059;-79
2022/09/20 10:49:34;;;;;;;3.22;1.50;;;486.40;2124.80;;;;;;5125926;27;20019;-76
2022/09/20 10:52:15;;;;;;;4.28;1.33;;;486.50;2048.00;;;;;;5135337;27;20472;-76
2022/09/20 10:55:01;;;;;;;3.63;1.20;;;486.70;2176.00;;;;;;5132699;27;20059;-76
2022/09/20 10:57:54;;;;;;;1.67;1.02;;;512.00;2022.40;;;;;;5133566;27;20022;-76
2022/09/20 11:00:23;;;;;;;3.42;1.30;;;487.00;1945.60;;;;;;5135250;27;20051;-78
2022/09/20 11:03:17;;;;;;;1.67;1.00;;;486.70;1996.80;;;;;;5133462;27;20042;-78
2022/09/20 11:05:53;;;;;;;2.78;1.40;;;486.50;1996.80;;;;;;5131480;27;20377;-78
2022/09/20 11:08:24;;;;;;;2.50;1.35;;;486.40;2022.40;;;;;;5140531;27;20050;-76
2022/09/20 11:11:13;;;;;;;4.38;1.08;;;461.70;2048.00;;;;;;5116934;27;20103;-79
2022/09/20 11:14:03;;;;;;;1.15;0.90;;;461.70;2022.40;;;;;;5123025;27;20042;-76
2022/09/20 11:16:40;;;;;;;1.42;0.90;;;486.50;1996.80;;;;;;5115469;27;20055;-78
2022/09/20 11:19:14;;;;;;;4.00;0.90;;;461.70;1996.80;;;;;;5133066;27;20019;-78
2022/09/20 11:21:52;;;;;;;3.45;1.88;;;461.70;2022.40;;;;;;5122500;27;20467;-78
2022/09/20 11:24:31;;;;;;;5.63;1.20;;;461.70;2048.00;;;;;;5134912;27;20038;-79
2022/09/20 11:27:28;;;;;;;1.70;0.93;;;461.70;2048.00;;;;;;5123341;27;20019;-78
2022/09/20 11:30:17;;;;;;;2.75;1.20;;;461.60;2048.00;;;;;;5098367;28;20028;-78
2022/09/20 11:33:10;;;;;;;1.30;0.95;;;486.70;2048.00;;;;;;5075138;28;20024;-77
2022/09/20 11:35:41;;;;;;;3.10;1.13;;;512.00;1945.60;;;;;;5073466;28;20119;-77
2022/09/20 11:38:10;;;;;;;1.75;0.95;;;512.60;1843.20;;;;;;5065970;28;20055;-77
2022/09/20 11:41:03;;;;;;;1.67;0.95;;;537.70;1817.60;;;;;;5083749;28;20040;-78
2022/09/20 11:43:31;;;;;;;2.40;0.90;;;537.80;1792.00;;;;;;5074415;28;20460;-76
2022/09/20 11:46:05;;;;;;;3.17;1.48;;;538.20;1715.20;;;;;;5079726;28;20063;-77
2022/09/20 11:48:59;;;;;;;2.20;1.00;;;538.10;1894.40;;;;;;5065122;28;20044;-77
2022/09/20 11:51:52;;;;;;;2.33;1.10;;;512.40;2073.60;;;;;;5084239;28;20124;-77
2022/09/20 11:54:35;;;;;;;3.08;1.00;;;487.10;2022.40;;;;;;5062780;28;20033;-77
2022/09/20 11:57:01;;;;;;;8.43;1.20;;;486.70;2022.40;;;;;;5082517;28;20024;-76
2022/09/20 11:59:33;;;;;;;5.78;1.30;;;512.10;1945.60;;;;;;5063365;28;20555;-77
2022/09/20 12:02:02;;;;;;;1.73;0.95;;;512.70;1868.80;;;;;;5087357;28;20381;-77
2022/09/20 12:04:30;;;;;;;1.35;0.90;;;537.80;1817.60;;;;;;5081741;28;20119;-77
2022/09/20 12:07:16;;;;;;;3.13;1.20;;;538.10;1766.40;;;;;;5111949;27;20035;-77
2022/09/20 12:09:45;;;;;;;3.88;1.38;;;537.60;1817.60;;;;;;5146873;27;20092;-77
2022/09/20 12:12:42;;;;;;;2.80;0.90;;;512.70;1792.00;;;;;;5131548;27;20539;-77
2022/09/20 12:15:23;;;;;;;4.30;1.13;;;537.90;1740.80;;;;;;5115391;27;20121;-77
2022/09/20 12:17:48;;;;;;;1.50;1.00;;;538.20;1740.80;;;;;;5133208;27;20030;-77
2022/09/20 12:20:37;;;;;;;1.85;1.00;;;563.20;1740.80;;;;;;5116032;27;20027;-77
2022/09/20 12:23:41;;;;;;;1.80;1.00;;;563.50;1664.00;;;;;;5147713;27;20019;-77
2022/09/20 12:26:09;;;;;;;2.30;1.45;;;563.70;1689.60;;;;;;5134237;27;20499;-77
2022/09/20 12:28:39;;;;;;;4.65;1.27;;;563.90;1638.40;;;;;;5115625;27;20396;-77
2022/09/20 12:31:32;;;;;;;4.05;1.30;;;564.00;1689.60;;;;;;5134948;27;20019;-77
2022/09/20 12:34:04;;;;;;;4.07;0.93;;;563.30;1664.00;;;;;;5134838;27;20011;-77
2022/09/20 12:36:49;;;;;;;2.42;1.05;;;538.10;1664.00;;;;;;5134545;27;20167;-78
2022/09/20 12:39:17;;;;;;;5.82;1.40;;;538.50;1638.40;;;;;;5133029;27;20019;-77
2022/09/20 12:41:55;;;;;;;3.88;1.60;;;538.30;1638.40;;;;;;5114348;27;20088;-77
2022/09/20 12:44:57;;;;;;;3.50;1.52;;;538.00;1689.60;;;;;;5133169;27;20015;-77
2022/09/20 12:47:31;;;;;;;4.60;1.27;;;538.40;1715.20;;;;;;5132771;27;20081;-79
2022/09/20 12:52:57;;;;;;;2.30;1.15;;;563.60;1612.80;;;;;;5131852;27;20158;-78
2022/09/20 12:55:26;;;;;;;2.55;1.00;;;563.80;1612.80;;;;;;5129981;27;20027;-79
2022/09/20 12:58:12;;;;;;;1.63;1.00;;;563.30;1612.80;;;;;;5114013;27;20054;-78
2022/09/20 13:00:45;;;;;;;2.22;1.20;;;563.20;1587.20;;;;;;5069585;28;20033;-78
2022/09/20 13:03:35;;;;;;;2.25;1.02;;;538.00;1612.80;;;;;;5052211;28;20024;-77
2022/09/20 13:06:13;;;;;;;2.97;1.15;;;538.10;1612.80;;;;;;5059285;28;20486;-77
2022/09/20 13:08:51;;;;;;;2.63;1.15;;;538.40;1587.20;;;;;;5060893;28;20025;-77
2022/09/20 13:11:55;;;;;;;6.43;1.38;;;563.40;1587.20;;;;;;5067112;28;20052;-76
2022/09/20 13:14:28;;;;;;;2.50;1.20;;;563.60;1638.40;;;;;;4965241;28;20029;-77
2022/09/20 13:17:08;;;;;;;2.38;1.20;;;563.60;1561.60;;;;;;4973289;28;20093;-77
2022/09/20 13:19:45;;;;;;;1.95;1.10;;;563.80;1536.00;;;;;;4981182;28;20034;-77
2022/09/20 13:22:18;;;;;;;3.15;0.90;;;564.00;1561.60;;;;;;4982038;28;20073;-78
2022/09/20 13:24:47;;;;;;;2.17;1.02;;;563.50;1612.80;;;;;;4982533;28;20528;-77
2022/09/20 13:27:19;;;;;;;2.13;0.93;;;538.50;1587.20;;;;;;4979460;28;20418;-77
2022/09/20 13:29:45;;;;;;;1.17;0.90;;;563.40;1561.60;;;;;;4980470;28;20049;-80
2022/09/20 13:32:30;;;;;;;1.73;0.98;;;563.40;1536.00;;;;;;4973767;28;20554;-76